SVA1549 OETB-OEDF
Flight info
| Callsign | SVA1549 |
|---|---|
| Flight time | 1h 44m |
| Altitude | 37000 |
| Route | DCT NABEK N697 SOBAS V11 REVAB N697 HIL G662 GAS J874 MUSRI L604 UMENA UMENA2J |
| Aircraft | A320/M-SDE3FGHIRWY/LB1 |
Departure
| Time | 2026-05-06 19:03 |
|---|---|
| Airport | Prince Sultan bin Abdulaziz International Airport (OETB) |
Arrival
| Time | 2026-05-06 20:47 |
|---|---|
| Airport | King Fahd International Airport (OEDF) |
| Time | Latitude | Longitude | Altitude | Speed | Heading |
|---|---|---|---|---|---|
| 2026-05-06 18:42 | 28.37122 | 36.60081 | 2541 ft | 0 kts | 222° |
| 2026-05-06 18:51 | 28.37131 | 36.60091 | 2525 ft | 2 kts | 222° |
| 2026-05-06 18:51 | 28.37144 | 36.60104 | 2525 ft | 2 kts | 222° |
| 2026-05-06 18:51 | 28.37157 | 36.60118 | 2533 ft | 3 kts | 214° |
| 2026-05-06 18:51 | 28.37172 | 36.60127 | 2530 ft | 3 kts | 193° |
| 2026-05-06 18:52 | 28.37190 | 36.60129 | 2532 ft | 3 kts | 164° |
| 2026-05-06 18:52 | 28.37206 | 36.60120 | 2525 ft | 2 kts | 130° |
| 2026-05-06 18:52 | 28.37207 | 36.60119 | 2525 ft | 0 kts | 130° |
| 2026-05-06 18:53 | 28.37207 | 36.60120 | 2541 ft | 1 kts | 130° |
| 2026-05-06 18:53 | 28.37190 | 36.60142 | 2538 ft | 4 kts | 130° |
| 2026-05-06 18:53 | 28.37163 | 36.60176 | 2541 ft | 7 kts | 132° |
| 2026-05-06 18:54 | 28.37132 | 36.60213 | 2541 ft | 6 kts | 133° |
| 2026-05-06 18:54 | 28.37109 | 36.60241 | 2541 ft | 4 kts | 133° |
| 2026-05-06 18:54 | 28.37088 | 36.60268 | 2533 ft | 5 kts | 133° |
| 2026-05-06 18:54 | 28.37069 | 36.60291 | 2536 ft | 4 kts | 133° |
| 2026-05-06 18:55 | 28.37032 | 36.60336 | 2532 ft | 9 kts | 132° |
| 2026-05-06 18:55 | 28.36993 | 36.60386 | 2532 ft | 8 kts | 131° |
| 2026-05-06 18:55 | 28.36971 | 36.60437 | 2536 ft | 6 kts | 97° |
| 2026-05-06 18:55 | 28.36993 | 36.60482 | 2537 ft | 7 kts | 44° |
| 2026-05-06 18:56 | 28.37042 | 36.60532 | 2535 ft | 13 kts | 42° |
| 2026-05-06 18:56 | 28.37114 | 36.60607 | 2534 ft | 16 kts | 42° |
| 2026-05-06 18:56 | 28.37200 | 36.60695 | 2536 ft | 17 kts | 43° |
| 2026-05-06 18:56 | 28.37267 | 36.60767 | 2534 ft | 8 kts | 57° |
| 2026-05-06 18:57 | 28.37258 | 36.60813 | 2531 ft | 5 kts | 126° |
| 2026-05-06 18:57 | 28.37230 | 36.60849 | 2544 ft | 6 kts | 132° |
| 2026-05-06 18:57 | 28.37196 | 36.60891 | 2541 ft | 10 kts | 132° |
| 2026-05-06 18:57 | 28.37154 | 36.60943 | 2542 ft | 8 kts | 133° |
| 2026-05-06 18:58 | 28.37121 | 36.60984 | 2533 ft | 6 kts | 133° |
| 2026-05-06 18:58 | 28.37066 | 36.61052 | 2541 ft | 20 kts | 132° |
| 2026-05-06 18:58 | 28.36975 | 36.61166 | 2546 ft | 19 kts | 132° |
| 2026-05-06 18:58 | 28.36889 | 36.61273 | 2547 ft | 18 kts | 132° |
| 2026-05-06 18:59 | 28.36813 | 36.61368 | 2548 ft | 15 kts | 133° |
| 2026-05-06 18:59 | 28.36749 | 36.61447 | 2548 ft | 12 kts | 132° |
| 2026-05-06 18:59 | 28.36674 | 36.61541 | 2549 ft | 17 kts | 132° |
| 2026-05-06 18:59 | 28.36597 | 36.61636 | 2550 ft | 15 kts | 132° |
| 2026-05-06 19:00 | 28.36532 | 36.61718 | 2550 ft | 13 kts | 132° |
| 2026-05-06 19:00 | 28.36471 | 36.61784 | 2550 ft | 11 kts | 145° |
| 2026-05-06 19:00 | 28.36404 | 36.61818 | 2549 ft | 10 kts | 165° |
| 2026-05-06 19:00 | 28.36341 | 36.61818 | 2549 ft | 9 kts | 189° |
| 2026-05-06 19:01 | 28.36280 | 36.61798 | 2549 ft | 13 kts | 201° |
| 2026-05-06 19:01 | 28.36223 | 36.61755 | 2548 ft | 6 kts | 227° |
| 2026-05-06 19:01 | 28.36219 | 36.61712 | 2547 ft | 5 kts | 288° |
| 2026-05-06 19:01 | 28.36238 | 36.61686 | 2547 ft | 4 kts | 313° |
| 2026-05-06 19:02 | 28.36252 | 36.61668 | 2547 ft | 3 kts | 312° |
| 2026-05-06 19:02 | 28.36303 | 36.61606 | 2546 ft | 36 kts | 313° |
| 2026-05-06 19:02 | 28.36642 | 36.61186 | 2547 ft | 105 kts | 312° |
| 2026-05-06 19:02 | 28.37266 | 36.60414 | 2542 ft | 158 kts | 313° |
| 2026-05-06 19:03 | 28.38069 | 36.59416 | 2931 ft | 172 kts | 316° |
| 2026-05-06 19:03 | 28.38892 | 36.58427 | 3666 ft | 172 kts | 317° |
| 2026-05-06 19:03 | 28.39756 | 36.57462 | 4306 ft | 177 kts | 318° |
| 2026-05-06 19:03 | 28.40628 | 36.56467 | 4915 ft | 178 kts | 317° |
| 2026-05-06 19:04 | 28.41499 | 36.55468 | 5457 ft | 178 kts | 316° |
| 2026-05-06 19:04 | 28.42364 | 36.54481 | 5962 ft | 179 kts | 315° |
| 2026-05-06 19:04 | 28.43272 | 36.53481 | 6401 ft | 185 kts | 316° |
| 2026-05-06 19:04 | 28.44254 | 36.52498 | 6843 ft | 191 kts | 318° |
| 2026-05-06 19:05 | 28.45284 | 36.51513 | 7310 ft | 195 kts | 318° |
| 2026-05-06 19:05 | 28.46378 | 36.50597 | 7837 ft | 196 kts | 327° |
| 2026-05-06 19:05 | 28.47601 | 36.49909 | 8371 ft | 197 kts | 338° |
| 2026-05-06 19:05 | 28.48917 | 36.49476 | 8905 ft | 197 kts | 348° |
| 2026-05-06 19:06 | 28.50282 | 36.49312 | 9414 ft | 198 kts | 358° |
| 2026-05-06 19:06 | 28.51667 | 36.49425 | 9895 ft | 200 kts | 8° |
| 2026-05-06 19:06 | 28.53019 | 36.49814 | 10330 ft | 201 kts | 19° |
| 2026-05-06 19:06 | 28.54309 | 36.50473 | 10677 ft | 208 kts | 29° |
| 2026-05-06 19:07 | 28.55522 | 36.51402 | 11045 ft | 213 kts | 39° |
| 2026-05-06 19:07 | 28.56608 | 36.52579 | 11402 ft | 219 kts | 49° |
| 2026-05-06 19:07 | 28.57531 | 36.53982 | 11779 ft | 224 kts | 59° |
| 2026-05-06 19:07 | 28.58254 | 36.55551 | 12159 ft | 230 kts | 69° |
| 2026-05-06 19:08 | 28.58774 | 36.57292 | 12558 ft | 235 kts | 78° |
| 2026-05-06 19:08 | 28.59056 | 36.59139 | 12979 ft | 239 kts | 88° |
| 2026-05-06 19:08 | 28.59080 | 36.61069 | 13292 ft | 251 kts | 97° |
| 2026-05-06 19:08 | 28.58812 | 36.63108 | 13479 ft | 271 kts | 106° |
| 2026-05-06 19:09 | 28.58311 | 36.65266 | 13678 ft | 294 kts | 109° |
| 2026-05-06 19:09 | 28.57691 | 36.67577 | 13848 ft | 317 kts | 110° |
| 2026-05-06 19:09 | 28.57008 | 36.70055 | 13986 ft | 340 kts | 110° |
| 2026-05-06 19:09 | 28.56287 | 36.72709 | 14103 ft | 362 kts | 109° |
| 2026-05-06 19:10 | 28.55549 | 36.75530 | 14221 ft | 383 kts | 108° |
| 2026-05-06 19:10 | 28.54802 | 36.78475 | 14428 ft | 399 kts | 108° |
| 2026-05-06 19:10 | 28.54041 | 36.81537 | 14908 ft | 405 kts | 108° |
| 2026-05-06 19:10 | 28.53280 | 36.84624 | 15459 ft | 409 kts | 108° |
| 2026-05-06 19:11 | 28.52510 | 36.87762 | 16010 ft | 414 kts | 108° |
| 2026-05-06 19:11 | 28.51729 | 36.90928 | 16582 ft | 417 kts | 108° |
| 2026-05-06 19:11 | 28.50942 | 36.94112 | 17146 ft | 421 kts | 108° |
| 2026-05-06 19:11 | 28.50129 | 36.97331 | 17719 ft | 425 kts | 108° |
| 2026-05-06 19:12 | 28.49291 | 37.00560 | 18277 ft | 429 kts | 109° |
| 2026-05-06 19:12 | 28.48432 | 37.03825 | 18778 ft | 432 kts | 109° |
| 2026-05-06 19:12 | 28.47564 | 37.07117 | 19257 ft | 436 kts | 109° |
| 2026-05-06 19:12 | 28.46693 | 37.10425 | 19751 ft | 439 kts | 109° |
| 2026-05-06 19:13 | 28.45824 | 37.13724 | 20229 ft | 443 kts | 109° |
| 2026-05-06 19:13 | 28.44942 | 37.17092 | 20693 ft | 446 kts | 109° |
| 2026-05-06 19:13 | 28.44058 | 37.20471 | 21146 ft | 449 kts | 109° |
| 2026-05-06 19:13 | 28.43165 | 37.23885 | 21602 ft | 452 kts | 109° |
| 2026-05-06 19:14 | 28.42268 | 37.27309 | 22035 ft | 455 kts | 109° |
| 2026-05-06 19:14 | 28.41360 | 37.30766 | 22453 ft | 458 kts | 109° |
| 2026-05-06 19:14 | 28.40443 | 37.34242 | 22873 ft | 460 kts | 109° |
| 2026-05-06 19:14 | 28.39522 | 37.37727 | 23265 ft | 463 kts | 109° |
| 2026-05-06 19:15 | 28.38594 | 37.41244 | 23642 ft | 466 kts | 109° |
| 2026-05-06 19:15 | 28.37659 | 37.44781 | 23967 ft | 468 kts | 109° |
| 2026-05-06 19:15 | 28.36720 | 37.48326 | 24267 ft | 471 kts | 109° |
| 2026-05-06 19:15 | 28.35785 | 37.51857 | 24563 ft | 474 kts | 109° |
| 2026-05-06 19:16 | 28.34833 | 37.55444 | 24854 ft | 477 kts | 109° |
| 2026-05-06 19:16 | 28.33874 | 37.59065 | 25148 ft | 480 kts | 109° |
| 2026-05-06 19:16 | 28.32909 | 37.62705 | 25433 ft | 482 kts | 110° |
| 2026-05-06 19:16 | 28.31938 | 37.66352 | 25708 ft | 485 kts | 110° |
| 2026-05-06 19:17 | 28.30956 | 37.70030 | 25984 ft | 488 kts | 110° |
| 2026-05-06 19:17 | 28.29967 | 37.73727 | 26245 ft | 490 kts | 110° |
| 2026-05-06 19:17 | 28.28977 | 37.77429 | 26502 ft | 493 kts | 110° |
| 2026-05-06 19:17 | 28.27979 | 37.81163 | 26750 ft | 495 kts | 110° |
| 2026-05-06 19:18 | 28.26979 | 37.84901 | 26991 ft | 498 kts | 110° |
| 2026-05-06 19:18 | 28.25968 | 37.88669 | 27234 ft | 500 kts | 110° |
| 2026-05-06 19:18 | 28.24968 | 37.92403 | 27447 ft | 502 kts | 110° |
| 2026-05-06 19:18 | 28.23939 | 37.96241 | 27681 ft | 504 kts | 110° |
| 2026-05-06 19:19 | 28.22928 | 38.00004 | 27890 ft | 506 kts | 110° |
| 2026-05-06 19:19 | 28.21900 | 38.03827 | 28159 ft | 506 kts | 110° |
| 2026-05-06 19:19 | 28.20874 | 38.07634 | 28468 ft | 506 kts | 110° |
| 2026-05-06 19:19 | 28.19842 | 38.11454 | 28771 ft | 506 kts | 110° |
| 2026-05-06 19:20 | 28.18816 | 38.15259 | 29071 ft | 506 kts | 110° |
| 2026-05-06 19:20 | 28.17786 | 38.19076 | 29366 ft | 506 kts | 110° |
| 2026-05-06 19:20 | 28.16755 | 38.22892 | 29660 ft | 506 kts | 110° |
| 2026-05-06 19:20 | 28.15725 | 38.26696 | 29974 ft | 506 kts | 110° |
| 2026-05-06 19:21 | 28.14694 | 38.30514 | 30250 ft | 506 kts | 110° |
| 2026-05-06 19:21 | 28.13661 | 38.34315 | 30505 ft | 506 kts | 111° |
| 2026-05-06 19:21 | 28.12619 | 38.38125 | 30761 ft | 506 kts | 111° |
| 2026-05-06 19:21 | 28.11575 | 38.41934 | 31022 ft | 506 kts | 111° |
| 2026-05-06 19:22 | 28.10535 | 38.45729 | 31284 ft | 506 kts | 111° |
| 2026-05-06 19:22 | 28.09494 | 38.49536 | 31553 ft | 505 kts | 111° |
| 2026-05-06 19:22 | 28.08468 | 38.53292 | 31818 ft | 505 kts | 111° |
| 2026-05-06 19:22 | 28.07420 | 38.57137 | 32086 ft | 505 kts | 111° |
| 2026-05-06 19:23 | 28.06396 | 38.60893 | 32346 ft | 505 kts | 112° |
| 2026-05-06 19:23 | 28.05355 | 38.64696 | 32610 ft | 505 kts | 112° |
| 2026-05-06 19:23 | 28.04310 | 38.68493 | 32873 ft | 505 kts | 112° |
| 2026-05-06 19:23 | 28.03262 | 38.72290 | 33121 ft | 505 kts | 112° |
| 2026-05-06 19:24 | 28.02217 | 38.76079 | 33388 ft | 506 kts | 112° |
| 2026-05-06 19:24 | 28.01167 | 38.79881 | 33645 ft | 506 kts | 112° |
| 2026-05-06 19:24 | 28.00115 | 38.83685 | 33901 ft | 506 kts | 113° |
| 2026-05-06 19:24 | 27.99066 | 38.87477 | 34132 ft | 506 kts | 113° |
| 2026-05-06 19:25 | 27.98012 | 38.91283 | 34354 ft | 506 kts | 113° |
| 2026-05-06 19:25 | 27.96957 | 38.95088 | 34588 ft | 506 kts | 113° |
| 2026-05-06 19:25 | 27.95903 | 38.98878 | 34813 ft | 506 kts | 113° |
| 2026-05-06 19:25 | 27.94845 | 39.02679 | 35041 ft | 506 kts | 114° |
| 2026-05-06 19:26 | 27.93788 | 39.06480 | 35255 ft | 506 kts | 113° |
| 2026-05-06 19:26 | 27.92919 | 39.10306 | 35459 ft | 511 kts | 107° |
| 2026-05-06 19:26 | 27.92196 | 39.14233 | 35657 ft | 511 kts | 107° |
| 2026-05-06 19:26 | 27.91470 | 39.18175 | 35845 ft | 512 kts | 108° |
| 2026-05-06 19:27 | 27.90741 | 39.22117 | 36036 ft | 512 kts | 108° |
| 2026-05-06 19:27 | 27.90011 | 39.26045 | 36237 ft | 512 kts | 108° |
| 2026-05-06 19:27 | 27.89273 | 39.29982 | 36439 ft | 511 kts | 108° |
| 2026-05-06 19:27 | 27.88537 | 39.33906 | 36626 ft | 511 kts | 108° |
| 2026-05-06 19:28 | 27.87802 | 39.37843 | 36796 ft | 512 kts | 108° |
| 2026-05-06 19:28 | 27.87066 | 39.41781 | 36970 ft | 512 kts | 108° |
| 2026-05-06 19:28 | 27.86332 | 39.45715 | 37020 ft | 513 kts | 108° |
| 2026-05-06 19:29 | 27.84841 | 39.53622 | 37009 ft | 514 kts | 108° |
| 2026-05-06 19:29 | 27.83361 | 39.61472 | 37012 ft | 515 kts | 109° |
| 2026-05-06 19:30 | 27.81855 | 39.69381 | 37013 ft | 515 kts | 109° |
| 2026-05-06 19:30 | 27.80351 | 39.77296 | 37009 ft | 516 kts | 109° |
| 2026-05-06 19:31 | 27.78845 | 39.85223 | 37016 ft | 516 kts | 109° |
| 2026-05-06 19:31 | 27.76560 | 39.97073 | 37018 ft | 515 kts | 109° |
| 2026-05-06 19:32 | 27.75044 | 40.04938 | 37019 ft | 515 kts | 109° |
| 2026-05-06 19:32 | 27.73527 | 40.12843 | 37027 ft | 516 kts | 109° |
| 2026-05-06 19:33 | 27.71991 | 40.20742 | 37035 ft | 515 kts | 109° |
| 2026-05-06 19:33 | 27.70459 | 40.28639 | 37032 ft | 515 kts | 109° |
| 2026-05-06 19:34 | 27.68922 | 40.36544 | 37034 ft | 515 kts | 109° |
| 2026-05-06 19:34 | 27.67386 | 40.44440 | 37026 ft | 516 kts | 109° |
| 2026-05-06 19:35 | 27.65846 | 40.52334 | 37027 ft | 516 kts | 109° |
| 2026-05-06 19:35 | 27.64299 | 40.60189 | 37023 ft | 516 kts | 109° |
| 2026-05-06 19:36 | 27.62745 | 40.68085 | 37025 ft | 516 kts | 109° |
| 2026-05-06 19:36 | 27.61180 | 40.75977 | 37023 ft | 516 kts | 109° |
| 2026-05-06 19:37 | 27.59606 | 40.83882 | 37023 ft | 516 kts | 109° |
| 2026-05-06 19:37 | 27.58297 | 40.90437 | 37025 ft | 517 kts | 109° |
| 2026-05-06 19:38 | 27.56453 | 40.99680 | 37034 ft | 517 kts | 109° |
| 2026-05-06 19:38 | 27.54871 | 41.07599 | 37035 ft | 518 kts | 109° |
| 2026-05-06 19:39 | 27.53287 | 41.15450 | 37036 ft | 517 kts | 110° |
| 2026-05-06 19:39 | 27.51685 | 41.23341 | 37036 ft | 518 kts | 110° |
| 2026-05-06 19:40 | 27.50079 | 41.31254 | 37040 ft | 518 kts | 110° |
| 2026-05-06 19:40 | 27.48474 | 41.39156 | 37042 ft | 518 kts | 110° |
| 2026-05-06 19:41 | 27.46863 | 41.47056 | 37044 ft | 518 kts | 110° |
| 2026-05-06 19:41 | 27.45247 | 41.54970 | 37046 ft | 518 kts | 110° |
| 2026-05-06 19:42 | 27.43637 | 41.62819 | 37043 ft | 518 kts | 110° |
| 2026-05-06 19:42 | 27.41363 | 41.70370 | 37037 ft | 501 kts | 126° |
| 2026-05-06 19:43 | 27.37894 | 41.77068 | 37036 ft | 495 kts | 130° |
| 2026-05-06 19:43 | 27.34374 | 41.83736 | 37034 ft | 495 kts | 129° |
| 2026-05-06 19:44 | 27.30873 | 41.90399 | 37043 ft | 495 kts | 129° |
| 2026-05-06 19:44 | 27.27368 | 41.97048 | 37040 ft | 494 kts | 130° |
| 2026-05-06 19:45 | 27.23883 | 42.03637 | 37041 ft | 494 kts | 130° |
| 2026-05-06 19:45 | 27.20367 | 42.10271 | 37040 ft | 493 kts | 130° |
| 2026-05-06 19:46 | 27.16854 | 42.16883 | 37046 ft | 493 kts | 130° |
| 2026-05-06 19:46 | 27.13347 | 42.23489 | 37038 ft | 492 kts | 130° |
| 2026-05-06 19:47 | 27.09837 | 42.30086 | 37047 ft | 492 kts | 130° |
| 2026-05-06 19:47 | 27.06345 | 42.36651 | 37033 ft | 493 kts | 130° |
| 2026-05-06 19:48 | 27.03404 | 42.42169 | 37030 ft | 493 kts | 130° |
| 2026-05-06 19:48 | 26.99901 | 42.48725 | 37020 ft | 493 kts | 130° |
| 2026-05-06 19:49 | 26.96377 | 42.55317 | 37015 ft | 493 kts | 130° |
| 2026-05-06 19:49 | 26.92850 | 42.61911 | 37016 ft | 494 kts | 130° |
| 2026-05-06 19:50 | 26.88730 | 42.69569 | 37007 ft | 494 kts | 130° |
| 2026-05-06 19:50 | 26.85784 | 42.75046 | 36999 ft | 494 kts | 130° |
| 2026-05-06 19:51 | 26.82244 | 42.81633 | 36998 ft | 494 kts | 130° |
| 2026-05-06 19:51 | 26.78698 | 42.88210 | 36999 ft | 494 kts | 130° |
| 2026-05-06 19:52 | 26.75147 | 42.94779 | 36996 ft | 493 kts | 130° |
| 2026-05-06 19:52 | 26.71591 | 43.01342 | 36993 ft | 493 kts | 130° |
| 2026-05-06 19:53 | 26.68044 | 43.07902 | 36994 ft | 493 kts | 130° |
| 2026-05-06 19:53 | 26.64488 | 43.14454 | 36988 ft | 493 kts | 130° |
| 2026-05-06 19:54 | 26.60952 | 43.20965 | 36986 ft | 493 kts | 130° |
| 2026-05-06 19:54 | 26.57399 | 43.27507 | 36984 ft | 493 kts | 130° |
| 2026-05-06 19:55 | 26.53822 | 43.34092 | 36978 ft | 493 kts | 130° |
| 2026-05-06 19:55 | 26.50256 | 43.40622 | 36973 ft | 493 kts | 130° |
| 2026-05-06 19:56 | 26.46680 | 43.47160 | 36968 ft | 493 kts | 130° |
| 2026-05-06 19:56 | 26.43136 | 43.53649 | 36961 ft | 493 kts | 130° |
| 2026-05-06 19:57 | 26.39566 | 43.60186 | 36964 ft | 493 kts | 130° |
| 2026-05-06 19:57 | 26.35987 | 43.66709 | 36972 ft | 493 kts | 130° |
| 2026-05-06 19:58 | 26.32429 | 43.73263 | 36968 ft | 498 kts | 126° |
| 2026-05-06 19:58 | 26.31036 | 43.76828 | 36968 ft | 509 kts | 116° |
| 2026-05-06 19:58 | 26.30159 | 43.80690 | 36968 ft | 519 kts | 105° |
| 2026-05-06 19:59 | 26.29903 | 43.88820 | 36967 ft | 528 kts | 95° |
| 2026-05-06 19:59 | 26.29981 | 43.97002 | 36964 ft | 528 kts | 95° |
| 2026-05-06 20:00 | 26.30039 | 44.05195 | 36952 ft | 528 kts | 95° |
| 2026-05-06 20:00 | 26.30093 | 44.13366 | 36950 ft | 528 kts | 95° |
| 2026-05-06 20:01 | 26.30145 | 44.21551 | 36948 ft | 527 kts | 95° |
| 2026-05-06 20:01 | 26.30193 | 44.29663 | 36948 ft | 527 kts | 95° |
| 2026-05-06 20:02 | 26.30239 | 44.37828 | 36956 ft | 527 kts | 95° |
| 2026-05-06 20:02 | 26.30274 | 44.46006 | 36944 ft | 527 kts | 95° |
| 2026-05-06 20:03 | 26.30305 | 44.54172 | 36944 ft | 527 kts | 95° |
| 2026-05-06 20:03 | 26.30341 | 44.62341 | 36942 ft | 527 kts | 95° |
| 2026-05-06 20:04 | 26.30375 | 44.70512 | 36946 ft | 528 kts | 95° |
| 2026-05-06 20:04 | 26.30404 | 44.78645 | 36945 ft | 528 kts | 95° |
| 2026-05-06 20:05 | 26.30418 | 44.86820 | 36950 ft | 528 kts | 95° |
| 2026-05-06 20:05 | 26.30426 | 44.94997 | 36955 ft | 528 kts | 95° |
| 2026-05-06 20:06 | 26.30430 | 45.03178 | 36953 ft | 528 kts | 95° |
| 2026-05-06 20:06 | 26.30431 | 45.11376 | 36956 ft | 528 kts | 95° |
| 2026-05-06 20:07 | 26.30429 | 45.19565 | 36962 ft | 529 kts | 95° |
| 2026-05-06 20:07 | 26.30418 | 45.27703 | 36962 ft | 529 kts | 95° |
| 2026-05-06 20:08 | 26.30404 | 45.35903 | 36966 ft | 529 kts | 95° |
| 2026-05-06 20:08 | 26.30385 | 45.44106 | 36969 ft | 530 kts | 95° |
| 2026-05-06 20:09 | 26.30360 | 45.52325 | 36974 ft | 530 kts | 95° |
| 2026-05-06 20:09 | 26.30342 | 45.60532 | 36982 ft | 530 kts | 95° |
| 2026-05-06 20:10 | 26.30312 | 45.68736 | 36987 ft | 529 kts | 96° |
| 2026-05-06 20:10 | 26.30273 | 45.76882 | 36987 ft | 529 kts | 96° |
| 2026-05-06 20:11 | 26.30234 | 45.85091 | 36989 ft | 529 kts | 96° |
| 2026-05-06 20:11 | 26.30190 | 45.93279 | 36992 ft | 528 kts | 96° |
| 2026-05-06 20:12 | 26.30146 | 46.01461 | 36994 ft | 528 kts | 96° |
| 2026-05-06 20:12 | 26.30091 | 46.09650 | 36996 ft | 528 kts | 95° |
| 2026-05-06 20:13 | 26.30032 | 46.17822 | 36996 ft | 528 kts | 96° |
| 2026-05-06 20:13 | 26.29966 | 46.25992 | 36989 ft | 527 kts | 96° |
| 2026-05-06 20:14 | 26.29897 | 46.34104 | 36986 ft | 527 kts | 95° |
| 2026-05-06 20:14 | 26.29826 | 46.42270 | 36988 ft | 527 kts | 95° |
| 2026-05-06 20:15 | 26.29750 | 46.50450 | 36981 ft | 527 kts | 95° |
| 2026-05-06 20:15 | 26.29673 | 46.58617 | 36979 ft | 527 kts | 95° |
| 2026-05-06 20:16 | 26.29586 | 46.66784 | 36984 ft | 527 kts | 95° |
| 2026-05-06 20:16 | 26.29490 | 46.74964 | 36976 ft | 527 kts | 95° |
| 2026-05-06 20:17 | 26.29394 | 46.83134 | 36979 ft | 527 kts | 95° |
| 2026-05-06 20:17 | 26.29290 | 46.91304 | 36971 ft | 528 kts | 95° |
| 2026-05-06 20:18 | 26.29187 | 46.99474 | 36967 ft | 528 kts | 95° |
| 2026-05-06 20:18 | 26.29074 | 47.07608 | 36976 ft | 527 kts | 96° |
| 2026-05-06 20:19 | 26.28955 | 47.15776 | 36972 ft | 527 kts | 95° |
| 2026-05-06 20:19 | 26.28840 | 47.23942 | 36977 ft | 527 kts | 96° |
| 2026-05-06 20:20 | 26.28700 | 47.32102 | 36977 ft | 527 kts | 96° |
| 2026-05-06 20:20 | 26.28545 | 47.40269 | 36973 ft | 526 kts | 96° |
| 2026-05-06 20:21 | 26.28390 | 47.48362 | 36972 ft | 526 kts | 96° |
| 2026-05-06 20:21 | 26.28232 | 47.56501 | 36969 ft | 525 kts | 96° |
| 2026-05-06 20:22 | 26.28071 | 47.64636 | 36968 ft | 525 kts | 96° |
| 2026-05-06 20:22 | 26.28667 | 47.72789 | 36963 ft | 532 kts | 79° |
| 2026-05-06 20:23 | 26.30330 | 47.80835 | 36959 ft | 533 kts | 79° |
| 2026-05-06 20:23 | 26.31980 | 47.88887 | 36955 ft | 533 kts | 80° |
| 2026-05-06 20:24 | 26.33610 | 47.96950 | 36955 ft | 533 kts | 80° |
| 2026-05-06 20:24 | 26.35242 | 48.05030 | 36949 ft | 534 kts | 80° |
| 2026-05-06 20:25 | 26.36871 | 48.13108 | 36945 ft | 534 kts | 80° |
| 2026-05-06 20:25 | 26.38507 | 48.21191 | 36941 ft | 534 kts | 79° |
| 2026-05-06 20:26 | 26.39314 | 48.25173 | 36734 ft | 535 kts | 79° |
| 2026-05-06 20:26 | 26.40141 | 48.29263 | 36024 ft | 536 kts | 80° |
| 2026-05-06 20:26 | 26.40951 | 48.33292 | 35030 ft | 541 kts | 80° |
| 2026-05-06 20:26 | 26.41774 | 48.37411 | 33978 ft | 546 kts | 80° |
| 2026-05-06 20:27 | 26.42595 | 48.41535 | 33077 ft | 543 kts | 80° |
| 2026-05-06 20:27 | 26.43411 | 48.45636 | 32155 ft | 539 kts | 79° |
| 2026-05-06 20:27 | 26.44222 | 48.49710 | 31213 ft | 535 kts | 79° |
| 2026-05-06 20:27 | 26.45022 | 48.53712 | 30096 ft | 523 kts | 79° |
| 2026-05-06 20:28 | 26.45806 | 48.57651 | 28206 ft | 517 kts | 79° |
| 2026-05-06 20:28 | 26.46580 | 48.61563 | 26307 ft | 515 kts | 80° |
| 2026-05-06 20:28 | 26.47079 | 48.65451 | 25063 ft | 500 kts | 87° |
| 2026-05-06 20:28 | 26.47143 | 48.69228 | 23890 ft | 486 kts | 95° |
| 2026-05-06 20:29 | 26.46813 | 48.72937 | 22703 ft | 474 kts | 100° |
| 2026-05-06 20:29 | 26.46396 | 48.76509 | 21863 ft | 459 kts | 100° |
| 2026-05-06 20:29 | 26.45987 | 48.80030 | 21055 ft | 454 kts | 100° |
| 2026-05-06 20:29 | 26.45589 | 48.83502 | 20252 ft | 446 kts | 100° |
| 2026-05-06 20:30 | 26.45201 | 48.86891 | 19477 ft | 438 kts | 100° |
| 2026-05-06 20:30 | 26.44443 | 48.93485 | 17942 ft | 420 kts | 100° |
| 2026-05-06 20:30 | 26.44067 | 48.96700 | 17189 ft | 415 kts | 100° |
| 2026-05-06 20:31 | 26.43690 | 48.99885 | 16496 ft | 412 kts | 100° |
| 2026-05-06 20:31 | 26.43317 | 49.03037 | 15824 ft | 409 kts | 100° |
| 2026-05-06 20:31 | 26.42950 | 49.06138 | 15159 ft | 407 kts | 100° |
| 2026-05-06 20:31 | 26.42577 | 49.09264 | 14531 ft | 405 kts | 100° |
| 2026-05-06 20:32 | 26.42210 | 49.12363 | 13899 ft | 402 kts | 100° |
| 2026-05-06 20:32 | 26.41844 | 49.15459 | 13237 ft | 400 kts | 99° |
| 2026-05-06 20:32 | 26.41484 | 49.18515 | 12639 ft | 395 kts | 99° |
| 2026-05-06 20:32 | 26.41126 | 49.21543 | 12123 ft | 392 kts | 99° |
| 2026-05-06 20:33 | 26.40768 | 49.24546 | 11509 ft | 388 kts | 99° |
| 2026-05-06 20:33 | 26.40419 | 49.27475 | 11013 ft | 370 kts | 99° |
| 2026-05-06 20:33 | 26.40097 | 49.30213 | 10812 ft | 342 kts | 99° |
| 2026-05-06 20:33 | 26.39803 | 49.32754 | 10581 ft | 319 kts | 99° |
| 2026-05-06 20:34 | 26.39523 | 49.35154 | 10347 ft | 307 kts | 100° |
| 2026-05-06 20:34 | 26.39244 | 49.37496 | 10117 ft | 303 kts | 100° |
| 2026-05-06 20:34 | 26.38964 | 49.39820 | 9907 ft | 301 kts | 100° |
| 2026-05-06 20:34 | 26.38684 | 49.42134 | 9797 ft | 301 kts | 100° |
| 2026-05-06 20:35 | 26.38409 | 49.44415 | 9668 ft | 301 kts | 100° |
| 2026-05-06 20:35 | 26.38129 | 49.46722 | 9545 ft | 300 kts | 100° |
| 2026-05-06 20:35 | 26.37847 | 49.49032 | 9417 ft | 300 kts | 100° |
| 2026-05-06 20:35 | 26.37565 | 49.51332 | 9284 ft | 299 kts | 100° |
| 2026-05-06 20:36 | 26.37283 | 49.53628 | 9160 ft | 299 kts | 100° |
| 2026-05-06 20:36 | 26.36774 | 49.55861 | 8825 ft | 294 kts | 115° |
| 2026-05-06 20:36 | 26.35817 | 49.57759 | 8649 ft | 269 kts | 130° |
| 2026-05-06 20:36 | 26.34717 | 49.59338 | 8525 ft | 248 kts | 130° |
| 2026-05-06 20:37 | 26.33692 | 49.60823 | 8290 ft | 238 kts | 130° |
| 2026-05-06 20:37 | 26.32694 | 49.62271 | 8038 ft | 232 kts | 129° |
| 2026-05-06 20:37 | 26.31743 | 49.63651 | 7910 ft | 216 kts | 130° |
| 2026-05-06 20:37 | 26.30852 | 49.64940 | 7701 ft | 206 kts | 129° |
| 2026-05-06 20:38 | 26.29993 | 49.66179 | 7333 ft | 205 kts | 129° |
| 2026-05-06 20:38 | 26.29119 | 49.67440 | 6923 ft | 207 kts | 128° |
| 2026-05-06 20:38 | 26.28228 | 49.68725 | 6472 ft | 212 kts | 127° |
| 2026-05-06 20:38 | 26.27313 | 49.70045 | 5948 ft | 216 kts | 127° |
| 2026-05-06 20:39 | 26.26399 | 49.71364 | 5630 ft | 208 kts | 127° |
| 2026-05-06 20:39 | 26.25563 | 49.72608 | 5488 ft | 195 kts | 119° |
| 2026-05-06 20:39 | 26.25047 | 49.73977 | 5383 ft | 190 kts | 100° |
| 2026-05-06 20:39 | 26.24933 | 49.75402 | 5235 ft | 179 kts | 83° |
| 2026-05-06 20:40 | 26.25163 | 49.76713 | 4973 ft | 173 kts | 69° |
| 2026-05-06 20:40 | 26.25489 | 49.77997 | 4734 ft | 171 kts | 70° |
| 2026-05-06 20:40 | 26.25800 | 49.79241 | 4501 ft | 163 kts | 69° |
| 2026-05-06 20:40 | 26.26098 | 49.80440 | 4281 ft | 159 kts | 69° |
| 2026-05-06 20:41 | 26.26395 | 49.81622 | 4072 ft | 158 kts | 69° |
| 2026-05-06 20:41 | 26.26779 | 49.82749 | 3790 ft | 155 kts | 53° |
| 2026-05-06 20:41 | 26.27500 | 49.83614 | 3469 ft | 149 kts | 29° |
| 2026-05-06 20:41 | 26.28409 | 49.84070 | 3281 ft | 140 kts | 9° |
| 2026-05-06 20:42 | 26.29361 | 49.84123 | 3126 ft | 137 kts | 350° |
| 2026-05-06 20:42 | 26.30278 | 49.83869 | 2962 ft | 136 kts | 343° |
| 2026-05-06 20:42 | 26.31184 | 49.83590 | 2792 ft | 134 kts | 344° |
| 2026-05-06 20:42 | 26.32079 | 49.83314 | 2627 ft | 132 kts | 345° |
| 2026-05-06 20:43 | 26.32956 | 49.83044 | 2456 ft | 130 kts | 345° |
| 2026-05-06 20:43 | 26.33822 | 49.82777 | 2300 ft | 129 kts | 345° |
| 2026-05-06 20:43 | 26.34684 | 49.82512 | 2138 ft | 129 kts | 345° |
| 2026-05-06 20:43 | 26.35544 | 49.82247 | 1973 ft | 128 kts | 346° |
| 2026-05-06 20:44 | 26.36390 | 49.81986 | 1810 ft | 127 kts | 346° |
| 2026-05-06 20:44 | 26.37241 | 49.81724 | 1650 ft | 126 kts | 346° |
| 2026-05-06 20:44 | 26.38073 | 49.81467 | 1492 ft | 123 kts | 347° |
| 2026-05-06 20:44 | 26.38896 | 49.81213 | 1332 ft | 123 kts | 347° |
| 2026-05-06 20:45 | 26.39738 | 49.80954 | 1180 ft | 129 kts | 345° |
| 2026-05-06 20:45 | 26.40607 | 49.80686 | 1012 ft | 130 kts | 345° |
| 2026-05-06 20:45 | 26.41492 | 49.80413 | 852 ft | 133 kts | 345° |
| 2026-05-06 20:45 | 26.42388 | 49.80136 | 699 ft | 133 kts | 345° |
| 2026-05-06 20:46 | 26.43278 | 49.79862 | 535 ft | 132 kts | 346° |
| 2026-05-06 20:46 | 26.44161 | 49.79589 | 365 ft | 131 kts | 346° |
| 2026-05-06 20:46 | 26.45033 | 49.79320 | 190 ft | 132 kts | 344° |
| 2026-05-06 20:46 | 26.45917 | 49.79046 | 64 ft | 121 kts | 344° |
| 2026-05-06 20:47 | 26.46527 | 49.78857 | 59 ft | 65 kts | 345° |
| 2026-05-06 20:47 | 26.46786 | 49.78778 | 58 ft | 26 kts | 345° |
| 2026-05-06 20:47 | 26.46955 | 49.78729 | 60 ft | 24 kts | 345° |
| 2026-05-06 20:47 | 26.47115 | 49.78719 | 59 ft | 23 kts | 5° |
| 2026-05-06 20:48 | 26.47263 | 49.78753 | 64 ft | 20 kts | 14° |
| 2026-05-06 20:48 | 26.47387 | 49.78790 | 64 ft | 11 kts | 17° |
| 2026-05-06 20:48 | 26.47450 | 49.78836 | 58 ft | 8 kts | 58° |
| 2026-05-06 20:48 | 26.47468 | 49.78893 | 62 ft | 7 kts | 75° |
| 2026-05-06 20:49 | 26.47480 | 49.78942 | 64 ft | 6 kts | 75° |
| 2026-05-06 20:49 | 26.47492 | 49.78991 | 57 ft | 11 kts | 73° |
| 2026-05-06 20:49 | 26.47507 | 49.79046 | 62 ft | 5 kts | 75° |
| 2026-05-06 20:49 | 26.47491 | 49.79104 | 62 ft | 9 kts | 137° |
| 2026-05-06 20:50 | 26.47438 | 49.79129 | 59 ft | 8 kts | 162° |
| 2026-05-06 20:50 | 26.47391 | 49.79144 | 62 ft | 7 kts | 164° |
| 2026-05-06 20:50 | 26.47350 | 49.79157 | 61 ft | 6 kts | 164° |
| 2026-05-06 20:50 | 26.47317 | 49.79169 | 61 ft | 4 kts | 158° |
| 2026-05-06 20:51 | 26.47292 | 49.79182 | 61 ft | 3 kts | 155° |
| 2026-05-06 20:51 | 26.47274 | 49.79191 | 61 ft | 2 kts | 155° |
| 2026-05-06 20:51 | 26.47263 | 49.79197 | 63 ft | 2 kts | 154° |
| 2026-05-06 20:51 | 26.47226 | 49.79217 | 66 ft | 7 kts | 153° |
| 2026-05-06 20:52 | 26.47183 | 49.79241 | 62 ft | 7 kts | 154° |
| 2026-05-06 20:52 | 26.47143 | 49.79263 | 59 ft | 6 kts | 154° |
| 2026-05-06 20:52 | 26.47123 | 49.79290 | 64 ft | 4 kts | 97° |
| 2026-05-06 20:52 | 26.47132 | 49.79321 | 60 ft | 4 kts | 66° |
| 2026-05-06 20:53 | 26.47141 | 49.79342 | 60 ft | 2 kts | 64° |
| 2026-05-06 20:53 | 26.47146 | 49.79354 | 61 ft | 1 kts | 62° |
| 2026-05-06 20:53 | 26.47148 | 49.79359 | 62 ft | 1 kts | 62° |
| 2026-05-06 20:53 | 26.47149 | 49.79361 | 60 ft | 0 kts | 62° |